sensor_id;sensor_type;location;lat;lon;timestamp;pressure;altitude;pressure_sealevel;temperature;humidity
80938;BME280;70395;51.382;7.074;2023-08-07T00:01:54;99915.16;;;15.12;71.26
80938;BME280;70395;51.382;7.074;2023-08-07T00:04:20;99923.44;;;15.11;70.74
80938;BME280;70395;51.382;7.074;2023-08-07T00:06:46;99920.75;;;15.11;71.14
80938;BME280;70395;51.382;7.074;2023-08-07T00:09:11;99924.66;;;15.08;71.15
80938;BME280;70395;51.382;7.074;2023-08-07T00:11:37;99921.94;;;15.08;71.22
80938;BME280;70395;51.382;7.074;2023-08-07T00:14:03;99925.66;;;15.07;71.17
80938;BME280;70395;51.382;7.074;2023-08-07T00:16:29;99925.66;;;15.07;71.48
80938;BME280;70395;51.382;7.074;2023-08-07T00:18:55;99936.28;;;15.08;71.47
80938;BME280;70395;51.382;7.074;2023-08-07T00:21:22;99930.91;;;15.08;71.16
80938;BME280;70395;51.382;7.074;2023-08-07T00:23:48;99937.16;;;15.09;71.61
80938;BME280;70395;51.382;7.074;2023-08-07T00:26:15;99947.56;;;15.12;71.38
80938;BME280;70395;51.382;7.074;2023-08-07T00:28:41;99943.00;;;15.13;71.62
80938;BME280;70395;51.382;7.074;2023-08-07T00:31:07;99940.28;;;15.13;71.64
80938;BME280;70395;51.382;7.074;2023-08-07T00:33:33;99945.50;;;15.14;71.49
80938;BME280;70395;51.382;7.074;2023-08-07T00:35:58;99940.09;;;15.14;71.68
80938;BME280;70395;51.382;7.074;2023-08-07T00:38:24;99938.44;;;15.13;71.36
80938;BME280;70395;51.382;7.074;2023-08-07T00:40:50;99946.34;;;15.15;71.07
80938;BME280;70395;51.382;7.074;2023-08-07T00:43:16;99946.34;;;15.15;71.58
80938;BME280;70395;51.382;7.074;2023-08-07T00:45:45;99949.41;;;15.12;71.53
80938;BME280;70395;51.382;7.074;2023-08-07T00:48:12;99952.09;;;15.12;71.56
80938;BME280;70395;51.382;7.074;2023-08-07T00:50:41;99954.53;;;15.06;71.88
80938;BME280;70395;51.382;7.074;2023-08-07T00:53:08;99952.66;;;15.07;71.79
80938;BME280;70395;51.382;7.074;2023-08-07T00:55:35;99946.44;;;15.06;71.60
80938;BME280;70395;51.382;7.074;2023-08-07T00:58:01;99951.66;;;15.08;71.75
80938;BME280;70395;51.382;7.074;2023-08-07T01:00:30;99960.59;;;15.08;71.39
80938;BME280;70395;51.382;7.074;2023-08-07T01:02:56;99968.69;;;15.08;71.22
80938;BME280;70395;51.382;7.074;2023-08-07T01:05:24;99962.44;;;15.08;71.59
80938;BME280;70395;51.382;7.074;2023-08-07T01:07:54;99959.75;;;15.08;71.06
80938;BME280;70395;51.382;7.074;2023-08-07T01:13:32;99964.88;;;15.03;71.34
80938;BME280;70395;51.382;7.074;2023-08-07T01:16:05;99973.81;;;15.03;71.46
80938;BME280;70395;51.382;7.074;2023-08-07T01:18:37;99967.56;;;15.03;71.15
80938;BME280;70395;51.382;7.074;2023-08-07T01:21:04;99968.75;;;15.00;71.59
80938;BME280;70395;51.382;7.074;2023-08-07T01:23:30;99969.97;;;14.97;71.76
80938;BME280;70395;51.382;7.074;2023-08-07T01:25:55;99956.66;;;14.96;71.83
80938;BME280;70395;51.382;7.074;2023-08-07T01:28:38;99965.97;;;14.93;72.05
80938;BME280;70395;51.382;7.074;2023-08-07T01:31:14;99965.97;;;14.93;71.79
80938;BME280;70395;51.382;7.074;2023-08-07T01:34:01;99966.16;;;14.92;71.64
80938;BME280;70395;51.382;7.074;2023-08-07T01:36:30;99975.72;;;14.94;71.87
80938;BME280;70395;51.382;7.074;2023-08-07T01:38:59;99964.13;;;14.94;71.87
80938;BME280;70395;51.382;7.074;2023-08-07T01:41:26;99963.06;;;14.95;72.04
80938;BME280;70395;51.382;7.074;2023-08-07T01:43:54;99959.38;;;14.96;71.52
80938;BME280;70395;51.382;7.074;2023-08-07T01:46:20;99974.53;;;14.97;71.26
80938;BME280;70395;51.382;7.074;2023-08-07T01:48:46;99965.78;;;14.95;71.99
80938;BME280;70395;51.382;7.074;2023-08-07T01:51:12;99963.91;;;14.95;71.80
80938;BME280;70395;51.382;7.074;2023-08-07T01:53:37;99975.72;;;14.94;71.83
80938;BME280;70395;51.382;7.074;2023-08-07T01:56:03;99978.44;;;14.94;71.96
80938;BME280;70395;51.382;7.074;2023-08-07T01:58:29;99980.31;;;14.94;71.83
80938;BME280;70395;51.382;7.074;2023-08-07T02:00:55;99971.38;;;14.93;71.76
80938;BME280;70395;51.382;7.074;2023-08-07T02:03:21;99977.63;;;14.94;71.72
80938;BME280;70395;51.382;7.074;2023-08-07T02:05:47;99982.16;;;14.93;71.55
80938;BME280;70395;51.382;7.074;2023-08-07T02:08:13;99982.81;;;14.95;71.58
80938;BME280;70395;51.382;7.074;2023-08-07T02:10:38;99980.13;;;14.95;71.52
80938;BME280;70395;51.382;7.074;2023-08-07T02:13:04;99979.91;;;14.97;71.54
80938;BME280;70395;51.382;7.074;2023-08-07T02:15:30;99963.72;;;14.97;71.24
80938;BME280;70395;51.382;7.074;2023-08-07T02:17:58;99978.25;;;14.96;71.65
80938;BME280;70395;51.382;7.074;2023-08-07T02:20:24;99972.00;;;14.95;71.36
80938;BME280;70395;51.382;7.074;2023-08-07T02:22:49;99980.13;;;14.95;71.66
80938;BME280;70395;51.382;7.074;2023-08-07T02:25:15;99981.97;;;14.95;71.85
80938;BME280;70395;51.382;7.074;2023-08-07T02:27:41;99990.47;;;14.92;71.55
80938;BME280;70395;51.382;7.074;2023-08-07T02:30:07;99989.41;;;14.93;71.43
80938;BME280;70395;51.382;7.074;2023-08-07T02:32:33;99989.41;;;14.93;71.74
80938;BME280;70395;51.382;7.074;2023-08-07T02:34:59;99978.63;;;14.93;71.97
80938;BME280;70395;51.382;7.074;2023-08-07T02:37:25;99990.06;;;14.95;71.70
80938;BME280;70395;51.382;7.074;2023-08-07T02:39:51;99988.22;;;14.95;71.48
80938;BME280;70395;51.382;7.074;2023-08-07T02:42:19;99990.72;;;14.97;71.64
80938;BME280;70395;51.382;7.074;2023-08-07T02:44:44;99988.88;;;14.97;71.72
80938;BME280;70395;51.382;7.074;2023-08-07T02:47:10;99998.81;;;14.97;71.54
80938;BME280;70395;51.382;7.074;2023-08-07T02:49:36;100014.84;;;14.99;71.24
80938;BME280;70395;51.382;7.074;2023-08-07T02:52:02;100005.91;;;14.98;71.29
80938;BME280;70395;51.382;7.074;2023-08-07T02:54:28;99996.81;;;14.99;71.66
80938;BME280;70395;51.382;7.074;2023-08-07T02:56:53;99999.31;;;15.01;71.31
80938;BME280;70395;51.382;7.074;2023-08-07T02:59:19;99995.59;;;15.02;71.42
80938;BME280;70395;51.382;7.074;2023-08-07T03:01:45;100000.81;;;15.03;71.55
80938;BME280;70395;51.382;7.074;2023-08-07T03:04:11;99990.00;;;15.03;71.32
80938;BME280;70395;51.382;7.074;2023-08-07T03:06:37;100004.34;;;15.04;71.45
80938;BME280;70395;51.382;7.074;2023-08-07T03:09:03;100009.75;;;15.04;71.38
80938;BME280;70395;51.382;7.074;2023-08-07T03:11:29;100003.97;;;15.07;71.16
80938;BME280;70395;51.382;7.074;2023-08-07T03:13:55;100005.66;;;15.08;71.32
80938;BME280;70395;51.382;7.074;2023-08-07T03:16:20;100011.50;;;15.12;71.50
80938;BME280;70395;51.382;7.074;2023-08-07T03:18:46;100009.50;;;15.14;70.57
80938;BME280;70395;51.382;7.074;2023-08-07T03:21:12;100000.53;;;15.13;71.02
80938;BME280;70395;51.382;7.074;2023-08-07T03:23:38;100004.25;;;15.12;70.68
80938;BME280;70395;51.382;7.074;2023-08-07T03:26:09;100012.91;;;15.07;71.07
80938;BME280;70395;51.382;7.074;2023-08-07T03:28:36;100006.66;;;15.07;71.22
80938;BME280;70395;51.382;7.074;2023-08-07T03:31:02;100008.72;;;15.05;71.32
80938;BME280;70395;51.382;7.074;2023-08-07T03:33:29;100006.22;;;15.03;71.17
80938;BME280;70395;51.382;7.074;2023-08-07T03:35:54;100013.66;;;15.01;70.86
80938;BME280;70395;51.382;7.074;2023-08-07T03:38:20;100021.25;;;14.97;71.59
80938;BME280;70395;51.382;7.074;2023-08-07T03:40:46;100012.31;;;14.97;70.90
80938;BME280;70395;51.382;7.074;2023-08-07T03:43:12;100020.63;;;14.95;71.31
80938;BME280;70395;51.382;7.074;2023-08-07T03:45:39;100013.72;;;14.93;71.50
80938;BME280;70395;51.382;7.074;2023-08-07T03:48:05;100027.41;;;14.91;71.31
80938;BME280;70395;51.382;7.074;2023-08-07T03:50:31;100023.22;;;14.89;71.17
80938;BME280;70395;51.382;7.074;2023-08-07T03:53:00;100027.41;;;14.91;71.09
80938;BME280;70395;51.382;7.074;2023-08-07T03:55:27;100021.81;;;14.93;71.25
80938;BME280;70395;51.382;7.074;2023-08-07T03:57:52;100016.22;;;14.94;71.37
80938;BME280;70395;51.382;7.074;2023-08-07T04:00:18;100023.31;;;14.95;71.15
80938;BME280;70395;51.382;7.074;2023-08-07T04:02:45;100015.03;;;14.97;71.08
80938;BME280;70395;51.382;7.074;2023-08-07T04:05:10;100024.63;;;15.00;71.16
80938;BME280;70395;51.382;7.074;2023-08-07T04:07:36;100020.06;;;15.00;70.82
80938;BME280;70395;51.382;7.074;2023-08-07T04:10:02;100013.00;;;14.99;70.83
80938;BME280;70395;51.382;7.074;2023-08-07T04:12:28;100021.09;;;14.99;70.66
80938;BME280;70395;51.382;7.074;2023-08-07T04:14:54;100024.63;;;15.00;70.47
80938;BME280;70395;51.382;7.074;2023-08-07T04:17:20;100022.59;;;15.02;70.51
80938;BME280;70395;51.382;7.074;2023-08-07T04:19:46;100028.81;;;15.02;70.63
80938;BME280;70395;51.382;7.074;2023-08-07T04:22:11;100018.88;;;15.03;71.04
80938;BME280;70395;51.382;7.074;2023-08-07T04:24:37;100029.31;;;15.06;71.11
80938;BME280;70395;51.382;7.074;2023-08-07T04:27:03;100016.66;;;15.06;70.56
80938;BME280;70395;51.382;7.074;2023-08-07T04:29:29;100033.00;;;15.05;70.63
80938;BME280;70395;51.382;7.074;2023-08-07T04:31:55;100034.88;;;15.04;70.87
80938;BME280;70395;51.382;7.074;2023-08-07T04:34:20;100030.50;;;15.03;70.44
80938;BME280;70395;51.382;7.074;2023-08-07T04:36:46;100027.81;;;15.03;70.61
80938;BME280;70395;51.382;7.074;2023-08-07T04:39:12;100029.84;;;15.01;70.99
80938;BME280;70395;51.382;7.074;2023-08-07T04:41:39;100028.00;;;15.02;70.81
80938;BME280;70395;51.382;7.074;2023-08-07T04:44:05;100035.06;;;15.03;70.51
80938;BME280;70395;51.382;7.074;2023-08-07T04:46:30;100035.72;;;15.05;70.80
80938;BME280;70395;51.382;7.074;2023-08-07T04:48:56;100038.25;;;15.06;70.39
80938;BME280;70395;51.382;7.074;2023-08-07T04:51:22;100039.91;;;15.07;70.30
80938;BME280;70395;51.382;7.074;2023-08-07T04:53:48;100035.81;;;15.12;70.62
80938;BME280;70395;51.382;7.074;2023-08-07T04:56:16;100044.75;;;15.12;70.46
80938;BME280;70395;51.382;7.074;2023-08-07T04:58:43;100030.41;;;15.12;70.38
80938;BME280;70395;51.382;7.074;2023-08-07T05:01:08;100026.91;;;15.11;70.16
80938;BME280;70395;51.382;7.074;2023-08-07T05:03:34;100025.88;;;15.12;70.51
80938;BME280;70395;51.382;7.074;2023-08-07T05:06:01;100034.63;;;15.14;70.43
80938;BME280;70395;51.382;7.074;2023-08-07T05:08:27;100031.19;;;15.20;70.24
80938;BME280;70395;51.382;7.074;2023-08-07T05:10:53;100028.13;;;15.24;70.25
80938;BME280;70395;51.382;7.074;2023-08-07T05:13:19;100033.53;;;15.24;69.84
80938;BME280;70395;51.382;7.074;2023-08-07T05:15:47;100030.00;;;15.23;69.89
80938;BME280;70395;51.382;7.074;2023-08-07T05:18:15;100033.53;;;15.24;69.71
80938;BME280;70395;51.382;7.074;2023-08-07T05:20:42;100019.00;;;15.25;69.83
80938;BME280;70395;51.382;7.074;2023-08-07T05:23:08;100030.66;;;15.25;69.80
80938;BME280;70395;51.382;7.074;2023-08-07T05:25:36;100032.31;;;15.26;69.76
80938;BME280;70395;51.382;7.074;2023-08-07T05:28:02;100033.16;;;15.27;70.17
80938;BME280;70395;51.382;7.074;2023-08-07T05:30:28;100034.34;;;15.24;69.81
80938;BME280;70395;51.382;7.074;2023-08-07T05:32:54;100030.84;;;15.24;70.07
80938;BME280;70395;51.382;7.074;2023-08-07T05:35:20;100036.41;;;15.22;70.03
80938;BME280;70395;51.382;7.074;2023-08-07T05:37:46;100039.09;;;15.22;69.96
80938;BME280;70395;51.382;7.074;2023-08-07T05:40:12;100038.25;;;15.22;69.88
80938;BME280;70395;51.382;7.074;2023-08-07T05:42:38;100039.31;;;15.20;69.72
80938;BME280;70395;51.382;7.074;2023-08-07T05:45:04;100046.09;;;15.16;70.18
80938;BME280;70395;51.382;7.074;2023-08-07T05:47:32;100058.91;;;15.14;70.35
80938;BME280;70395;51.382;7.074;2023-08-07T05:49:57;100048.50;;;15.11;69.90
80938;BME280;70395;51.382;7.074;2023-08-07T05:52:23;100057.63;;;15.10;70.02
80938;BME280;70395;51.382;7.074;2023-08-07T05:54:49;100043.81;;;15.05;70.40
80938;BME280;70395;51.382;7.074;2023-08-07T05:57:15;100055.66;;;15.04;70.33
80938;BME280;70395;51.382;7.074;2023-08-07T05:59:41;100060.56;;;15.00;70.52
80938;BME280;70395;51.382;7.074;2023-08-07T06:02:07;100060.56;;;15.00;70.56
80938;BME280;70395;51.382;7.074;2023-08-07T06:04:32;100051.81;;;14.98;70.49
80938;BME280;70395;51.382;7.074;2023-08-07T06:06:58;100058.41;;;14.95;70.43
80938;BME280;70395;51.382;7.074;2023-08-07T06:09:24;100063.16;;;14.93;70.47
80938;BME280;70395;51.382;7.074;2023-08-07T06:11:50;100064.81;;;14.94;70.94
80938;BME280;70395;51.382;7.074;2023-08-07T06:14:16;100068.34;;;14.95;70.89
80938;BME280;70395;51.382;7.074;2023-08-07T06:16:41;100061.94;;;14.96;70.72
80938;BME280;70395;51.382;7.074;2023-08-07T06:19:07;100061.75;;;14.97;71.08
80938;BME280;70395;51.382;7.074;2023-08-07T06:21:34;100071.56;;;14.99;71.01
80938;BME280;70395;51.382;7.074;2023-08-07T06:24:00;100082.34;;;14.99;70.73
80938;BME280;70395;51.382;7.074;2023-08-07T06:26:25;100073.41;;;14.98;71.20
80938;BME280;70395;51.382;7.074;2023-08-07T06:28:51;100077.97;;;14.97;71.36
80938;BME280;70395;51.382;7.074;2023-08-07T06:31:18;100083.19;;;14.99;71.16
80938;BME280;70395;51.382;7.074;2023-08-07T06:33:44;100084.69;;;15.02;71.23
80938;BME280;70395;51.382;7.074;2023-08-07T06:36:09;100079.56;;;15.07;70.91
80938;BME280;70395;51.382;7.074;2023-08-07T06:38:35;100092.53;;;15.12;71.40
80938;BME280;70395;51.382;7.074;2023-08-07T06:41:02;100106.31;;;15.17;70.87
80938;BME280;70395;51.382;7.074;2023-08-07T06:43:27;100105.13;;;15.19;71.00
80938;BME280;70395;51.382;7.074;2023-08-07T06:45:56;100103.06;;;15.22;70.79
80938;BME280;70395;51.382;7.074;2023-08-07T06:48:22;100117.72;;;15.27;71.04
80938;BME280;70395;51.382;7.074;2023-08-07T06:50:50;100106.56;;;15.30;71.13
80938;BME280;70395;51.382;7.074;2023-08-07T06:53:16;100115.13;;;15.34;70.93
80938;BME280;70395;51.382;7.074;2023-08-07T06:55:43;100119.34;;;15.37;70.80
80938;BME280;70395;51.382;7.074;2023-08-07T06:58:09;100107.97;;;15.41;70.37
80938;BME280;70395;51.382;7.074;2023-08-07T07:00:36;100120.94;;;15.46;70.24
80938;BME280;70395;51.382;7.074;2023-08-07T07:03:03;100123.09;;;15.51;70.87
80938;BME280;70395;51.382;7.074;2023-08-07T07:05:30;100122.06;;;15.52;70.37
80938;BME280;70395;51.382;7.074;2023-08-07T07:07:57;100122.72;;;15.54;70.46
80938;BME280;70395;51.382;7.074;2023-08-07T07:10:23;100121.72;;;15.55;70.49
80938;BME280;70395;51.382;7.074;2023-08-07T07:12:49;100135.22;;;15.55;70.21
80938;BME280;70395;51.382;7.074;2023-08-07T07:15:15;100131.50;;;15.56;70.74
80938;BME280;70395;51.382;7.074;2023-08-07T07:17:41;100134.88;;;15.58;70.68
80938;BME280;70395;51.382;7.074;2023-08-07T07:20:07;100130.28;;;15.59;70.24
80938;BME280;70395;51.382;7.074;2023-08-07T07:22:35;100128.06;;;15.62;70.12
80938;BME280;70395;51.382;7.074;2023-08-07T07:25:01;100135.13;;;15.63;70.08
80938;BME280;70395;51.382;7.074;2023-08-07T07:27:27;100146.44;;;15.67;70.17
80938;BME280;70395;51.382;7.074;2023-08-07T07:29:53;100142.88;;;15.67;70.26
80938;BME280;70395;51.382;7.074;2023-08-07T07:32:19;100155.69;;;15.73;70.20
80938;BME280;70395;51.382;7.074;2023-08-07T07:34:45;100155.13;;;15.78;70.20
80938;BME280;70395;51.382;7.074;2023-08-07T07:37:10;100155.59;;;15.81;70.43
80938;BME280;70395;51.382;7.074;2023-08-07T07:39:36;100158.94;;;15.83;70.44
80938;BME280;70395;51.382;7.074;2023-08-07T07:42:03;100159.59;;;15.85;69.84
80938;BME280;70395;51.382;7.074;2023-08-07T07:44:30;100159.22;;;15.88;70.16
80938;BME280;70395;51.382;7.074;2023-08-07T07:46:56;100170.03;;;15.88;70.14
80938;BME280;70395;51.382;7.074;2023-08-07T07:49:22;100172.38;;;15.92;70.22
80938;BME280;70395;51.382;7.074;2023-08-07T07:51:48;100174.72;;;15.95;70.18
80938;BME280;70395;51.382;7.074;2023-08-07T07:54:15;100176.22;;;15.97;69.53
80938;BME280;70395;51.382;7.074;2023-08-07T07:56:44;100177.69;;;16.00;70.01
80938;BME280;70395;51.382;7.074;2023-08-07T07:59:11;100183.78;;;16.02;69.98
80938;BME280;70395;51.382;7.074;2023-08-07T08:01:37;100192.72;;;16.03;69.57
80938;BME280;70395;51.382;7.074;2023-08-07T08:04:03;100186.13;;;16.05;69.77
80938;BME280;70395;51.382;7.074;2023-08-07T08:06:29;100197.78;;;16.06;69.87
80938;BME280;70395;51.382;7.074;2023-08-07T08:08:56;100194.22;;;16.05;70.16
80938;BME280;70395;51.382;7.074;2023-08-07T08:11:22;100196.13;;;16.05;69.36
80938;BME280;70395;51.382;7.074;2023-08-07T08:13:48;100204.03;;;16.06;69.80
80938;BME280;70395;51.382;7.074;2023-08-07T08:16:14;100218.94;;;16.02;69.75
80938;BME280;70395;51.382;7.074;2023-08-07T08:18:40;100216.41;;;16.01;69.56
80938;BME280;70395;51.382;7.074;2023-08-07T08:21:06;100221.16;;;15.98;70.02
80938;BME280;70395;51.382;7.074;2023-08-07T08:23:32;100232.81;;;15.99;70.24
80938;BME280;70395;51.382;7.074;2023-08-07T08:25:58;100227.03;;;16.02;69.72
80938;BME280;70395;51.382;7.074;2023-08-07T08:28:24;100233.78;;;16.06;70.12
80938;BME280;70395;51.382;7.074;2023-08-07T08:30:49;100242.38;;;16.10;70.06
80938;BME280;70395;51.382;7.074;2023-08-07T08:33:15;100250.59;;;16.17;70.35
80938;BME280;70395;51.382;7.074;2023-08-07T08:35:43;100242.38;;;16.25;69.96
80938;BME280;70395;51.382;7.074;2023-08-07T08:38:09;100241.28;;;16.35;69.63
80938;BME280;70395;51.382;7.074;2023-08-07T08:40:37;100248.94;;;16.46;69.34
80938;BME280;70395;51.382;7.074;2023-08-07T08:43:05;100253.22;;;16.55;69.16
80938;BME280;70395;51.382;7.074;2023-08-07T08:45:32;100263.97;;;16.64;69.34
80938;BME280;70395;51.382;7.074;2023-08-07T08:48:03;100272.47;;;16.76;69.11
80938;BME280;70395;51.382;7.074;2023-08-07T08:50:32;100267.56;;;16.86;68.43
80938;BME280;70395;51.382;7.074;2023-08-07T08:53:00;100270.84;;;16.97;68.56
80938;BME280;70395;51.382;7.074;2023-08-07T08:55:29;100274.94;;;17.08;68.52
80938;BME280;70395;51.382;7.074;2023-08-07T08:57:57;100272.13;;;17.16;68.22
80938;BME280;70395;51.382;7.074;2023-08-07T09:00:26;100280.16;;;17.25;67.75
80938;BME280;70395;51.382;7.074;2023-08-07T09:02:55;100277.06;;;17.28;67.72
80938;BME280;70395;51.382;7.074;2023-08-07T09:05:22;100276.50;;;17.32;67.89
80938;BME280;70395;51.382;7.074;2023-08-07T09:07:48;100279.44;;;17.38;68.04
80938;BME280;70395;51.382;7.074;2023-08-07T09:10:16;100288.75;;;17.50;67.27
80938;BME280;70395;51.382;7.074;2023-08-07T09:12:54;100289.50;;;17.59;67.25
80938;BME280;70395;51.382;7.074;2023-08-07T09:15:24;100287.31;;;17.70;67.15
80938;BME280;70395;51.382;7.074;2023-08-07T09:17:51;100297.63;;;17.81;66.11
80938;BME280;70395;51.382;7.074;2023-08-07T09:20:20;100297.88;;;17.86;66.24
80938;BME280;70395;51.382;7.074;2023-08-07T09:22:46;100291.63;;;17.86;66.17
80938;BME280;70395;51.382;7.074;2023-08-07T09:25:12;100306.47;;;17.90;66.45
80938;BME280;70395;51.382;7.074;2023-08-07T09:27:39;100310.53;;;18.01;66.11
80938;BME280;70395;51.382;7.074;2023-08-07T09:30:08;100308.56;;;18.17;66.08
80938;BME280;70395;51.382;7.074;2023-08-07T09:32:35;100319.81;;;18.36;65.42
80938;BME280;70395;51.382;7.074;2023-08-07T09:35:07;100322.75;;;18.70;64.66
80938;BME280;70395;51.382;7.074;2023-08-07T09:37:36;100314.25;;;19.22;64.07
80938;BME280;70395;51.382;7.074;2023-08-07T09:40:02;100311.41;;;19.51;64.05
80938;BME280;70395;51.382;7.074;2023-08-07T09:42:31;100315.38;;;19.55;62.72
80938;BME280;70395;51.382;7.074;2023-08-07T09:45:00;100316.63;;;19.45;62.46
80938;BME280;70395;51.382;7.074;2023-08-07T09:47:27;100309.06;;;19.34;63.10
80938;BME280;70395;51.382;7.074;2023-08-07T09:49:55;100327.84;;;19.22;62.79
80938;BME280;70395;51.382;7.074;2023-08-07T09:52:24;100322.53;;;19.07;63.06
80938;BME280;70395;51.382;7.074;2023-08-07T09:54:51;100324.63;;;19.05;62.65
80938;BME280;70395;51.382;7.074;2023-08-07T09:57:20;100330.44;;;19.01;62.02
80938;BME280;70395;51.382;7.074;2023-08-07T09:59:49;100337.13;;;18.99;62.16
80938;BME280;70395;51.382;7.074;2023-08-07T10:02:16;100338.19;;;19.05;62.54
80938;BME280;70395;51.382;7.074;2023-08-07T10:04:42;100337.66;;;19.23;63.00
80938;BME280;70395;51.382;7.074;2023-08-07T10:07:10;100345.44;;;19.33;61.99
80938;BME280;70395;51.382;7.074;2023-08-07T10:09:38;100344.59;;;19.32;61.08
80938;BME280;70395;51.382;7.074;2023-08-07T10:12:05;100353.59;;;19.33;62.06
80938;BME280;70395;51.382;7.074;2023-08-07T10:14:31;100351.97;;;19.45;61.91
80938;BME280;70395;51.382;7.074;2023-08-07T10:16:57;100359.56;;;19.64;61.21
80938;BME280;70395;51.382;7.074;2023-08-07T10:19:23;100354.16;;;19.84;60.87
80938;BME280;70395;51.382;7.074;2023-08-07T10:21:50;100352.53;;;20.10;60.51
80938;BME280;70395;51.382;7.074;2023-08-07T10:24:17;100358.41;;;20.14;59.75
80938;BME280;70395;51.382;7.074;2023-08-07T10:26:45;100337.88;;;20.11;60.01
80938;BME280;70395;51.382;7.074;2023-08-07T10:29:17;100347.53;;;20.14;59.34
80938;BME280;70395;51.382;7.074;2023-08-07T10:31:45;100346.25;;;20.23;59.12
80938;BME280;70395;51.382;7.074;2023-08-07T10:34:12;100340.00;;;20.30;58.52
80938;BME280;70395;51.382;7.074;2023-08-07T10:36:40;100343.75;;;20.29;59.30
80938;BME280;70395;51.382;7.074;2023-08-07T10:39:15;100345.00;;;20.26;58.92
80938;BME280;70395;51.382;7.074;2023-08-07T10:41:54;100345.41;;;20.23;58.83
80938;BME280;70395;51.382;7.074;2023-08-07T10:44:26;100344.59;;;20.29;58.92
80938;BME280;70395;51.382;7.074;2023-08-07T10:46:57;100346.47;;;20.35;58.00
80938;BME280;70395;51.382;7.074;2023-08-07T10:52:14;100353.41;;;20.45;58.15
80938;BME280;70395;51.382;7.074;2023-08-07T10:54:50;100348.38;;;20.35;58.62
80938;BME280;70395;51.382;7.074;2023-08-07T10:57:17;100353.81;;;20.21;57.91
80938;BME280;70395;51.382;7.074;2023-08-07T10:59:51;100362.34;;;20.05;58.58
80938;BME280;70395;51.382;7.074;2023-08-07T11:02:29;100375.28;;;19.89;58.60
80938;BME280;70395;51.382;7.074;2023-08-07T11:04:55;100393.25;;;19.76;59.13
80938;BME280;70395;51.382;7.074;2023-08-07T11:07:27;100391.53;;;19.55;60.03
80938;BME280;70395;51.382;7.074;2023-08-07T11:09:57;100394.41;;;19.40;60.27
80938;BME280;70395;51.382;7.074;2023-08-07T11:12:28;100395.38;;;19.25;60.73
80938;BME280;70395;51.382;7.074;2023-08-07T11:14:55;100396.94;;;19.12;60.78
80938;BME280;70395;51.382;7.074;2023-08-07T11:17:29;100391.66;;;18.97;61.21
80938;BME280;70395;51.382;7.074;2023-08-07T11:19:55;100398.34;;;18.95;61.81
80938;BME280;70395;51.382;7.074;2023-08-07T11:22:22;100390.63;;;19.05;61.47
80938;BME280;70395;51.382;7.074;2023-08-07T11:24:49;100398.16;;;19.32;61.46
80938;BME280;70395;51.382;7.074;2023-08-07T11:27:15;100390.88;;;20.43;59.56
80938;BME280;70395;51.382;7.074;2023-08-07T11:29:41;100390.50;;;21.79;56.87
80938;BME280;70395;51.382;7.074;2023-08-07T11:32:09;100389.53;;;23.39;54.06
80938;BME280;70395;51.382;7.074;2023-08-07T11:34:35;100382.25;;;24.85;51.18
80938;BME280;70395;51.382;7.074;2023-08-07T11:37:01;100388.16;;;26.18;49.25
80938;BME280;70395;51.382;7.074;2023-08-07T11:39:27;100378.06;;;27.16;46.41
80938;BME280;70395;51.382;7.074;2023-08-07T11:41:53;100381.00;;;27.82;45.19
80938;BME280;70395;51.382;7.074;2023-08-07T11:44:19;100385.09;;;27.79;44.63
80938;BME280;70395;51.382;7.074;2023-08-07T11:46:45;100388.34;;;27.26;44.98
80938;BME280;70395;51.382;7.074;2023-08-07T11:49:12;100390.69;;;26.54;45.73
80938;BME280;70395;51.382;7.074;2023-08-07T11:51:38;100403.41;;;25.80;47.23
80938;BME280;70395;51.382;7.074;2023-08-07T11:54:04;100399.94;;;25.02;47.75
80938;BME280;70395;51.382;7.074;2023-08-07T11:56:30;100410.56;;;24.19;48.22
80938;BME280;70395;51.382;7.074;2023-08-07T11:58:57;100414.50;;;23.49;49.69
80938;BME280;70395;51.382;7.074;2023-08-07T12:01:25;100401.88;;;23.29;50.53
80938;BME280;70395;51.382;7.074;2023-08-07T12:06:35;100384.06;;;24.80;48.86
80938;BME280;70395;51.382;7.074;2023-08-07T12:09:02;100394.31;;;25.50;47.29
80938;BME280;70395;51.382;7.074;2023-08-07T12:11:31;100390.59;;;26.49;45.81
80938;BME280;70395;51.382;7.074;2023-08-07T12:14:00;100397.81;;;27.58;43.72
80938;BME280;70395;51.382;7.074;2023-08-07T12:16:34;100403.69;;;28.27;42.60
80938;BME280;70395;51.382;7.074;2023-08-07T12:19:00;100409.44;;;27.93;41.44
80938;BME280;70395;51.382;7.074;2023-08-07T12:21:27;100412.94;;;27.32;42.39
80938;BME280;70395;51.382;7.074;2023-08-07T12:23:57;100404.97;;;27.14;43.18
80938;BME280;70395;51.382;7.074;2023-08-07T12:26:23;100405.94;;;27.25;43.17
80938;BME280;70395;51.382;7.074;2023-08-07T12:28:49;100413.88;;;27.04;42.28
80938;BME280;70395;51.382;7.074;2023-08-07T12:31:15;100417.38;;;27.39;42.85
80938;BME280;70395;51.382;7.074;2023-08-07T12:33:43;100412.13;;;28.15;41.81
80938;BME280;70395;51.382;7.074;2023-08-07T12:36:08;100409.91;;;28.88;39.37
80938;BME280;70395;51.382;7.074;2023-08-07T12:38:36;100403.03;;;29.55;38.62
80938;BME280;70395;51.382;7.074;2023-08-07T12:41:02;100409.44;;;29.72;37.76
80938;BME280;70395;51.382;7.074;2023-08-07T12:43:29;100402.78;;;29.67;37.06
80938;BME280;70395;51.382;7.074;2023-08-07T12:45:54;100391.47;;;29.64;37.52
80938;BME280;70395;51.382;7.074;2023-08-07T12:48:20;100404.22;;;29.96;35.96
80938;BME280;70395;51.382;7.074;2023-08-07T12:50:46;100397.06;;;29.90;37.00
80938;BME280;70395;51.382;7.074;2023-08-07T12:53:12;100397.53;;;29.55;35.87
80938;BME280;70395;51.382;7.074;2023-08-07T12:55:37;100397.13;;;29.20;37.59
80938;BME280;70395;51.382;7.074;2023-08-07T12:58:03;100408.97;;;28.67;38.31
80938;BME280;70395;51.382;7.074;2023-08-07T13:00:29;100404.84;;;27.98;37.59